Terminal Aerodrome Forecast
Issued by NWS

Home | Current Version | Previous Version | Text Only | Print | Product List | Glossary On
Versions: 1 2 3 4 5 6 7 8 9 10 11 12 13 14 15 16 17 18 19 20 21 22 23 24 25 26 27 28 29 30 31 32 33 34 35 36 37 38 39 40
032
FTUS43 KGRB 261904 AAA
TAFRHI
TAF AMD
KRHI 261904Z 2619/2718 34009G19KT P6SM -SHRA SCT035 OVC040
      TEMPO 2619/2620 5SM -SHRA OVC025
     FM262000 33008KT P6SM BKN035 BKN120
      TEMPO 2620/2624 SCT035 BKN120
     FM270000 32005KT P6SM SCT200
     FM270400 27002KT P6SM FEW150
     FM271400 27007KT P6SM FEW200=

USA.gov is the U.S. government's official web portal to all federal, state and local government web resources and services.